createdAt,value
2022-10-19T00:02:05.553Z,10.66
2022-10-19T00:05:29.382Z,10.54
2022-10-19T00:08:53.592Z,10.58
2022-10-19T00:12:09.523Z,10.56
2022-10-19T00:15:29.411Z,10.60
2022-10-19T00:18:50.427Z,10.61
2022-10-19T00:22:13.109Z,10.54
2022-10-19T00:25:39.363Z,10.54
2022-10-19T00:29:00.788Z,10.55
2022-10-19T00:32:20.400Z,10.43
2022-10-19T00:35:43.347Z,10.46
2022-10-19T00:39:01.503Z,10.47
2022-10-19T00:42:12.561Z,10.58
2022-10-19T00:45:19.571Z,10.68
2022-10-19T00:48:29.887Z,10.74
2022-10-19T00:51:58.072Z,10.77
2022-10-19T00:55:20.081Z,10.78
2022-10-19T00:58:42.123Z,10.80
2022-10-19T01:02:05.048Z,10.76
2022-10-19T01:05:21.471Z,10.73
2022-10-19T01:08:34.909Z,10.85
2022-10-19T01:12:27.181Z,10.87
2022-10-19T01:15:48.858Z,10.94
2022-10-19T01:18:59.020Z,11.03
2022-10-19T01:22:28.238Z,11.06
2022-10-19T01:26:06.375Z,11.13
2022-10-19T01:29:18.687Z,11.14
2022-10-19T01:32:33.296Z,11.09
2022-10-19T01:36:12.311Z,11.06
2022-10-19T01:39:29.366Z,11.12
2022-10-19T01:42:46.904Z,11.11
2022-10-19T01:46:03.867Z,11.17
2022-10-19T01:49:30.092Z,11.15
2022-10-19T01:52:41.284Z,11.20
2022-10-19T01:55:59.148Z,11.20
2022-10-19T01:59:20.128Z,11.08
2022-10-19T02:02:31.299Z,11.03
2022-10-19T02:05:36.636Z,10.99
2022-10-19T02:08:56.136Z,10.96
2022-10-19T02:12:34.355Z,10.89
2022-10-19T02:16:15.175Z,11.00
2022-10-19T02:19:26.171Z,11.05
2022-10-19T02:22:32.580Z,11.16
2022-10-19T02:25:40.447Z,11.23
2022-10-19T02:28:54.787Z,11.22
2022-10-19T02:32:04.622Z,11.10
2022-10-19T02:35:28.102Z,11.36
2022-10-19T02:38:55.241Z,11.50
2022-10-19T02:42:24.635Z,11.72
2022-10-19T02:45:56.289Z,11.72
2022-10-19T02:49:13.839Z,11.98
2022-10-19T02:52:30.485Z,11.95
2022-10-19T02:55:48.106Z,11.92
2022-10-19T02:59:09.168Z,11.96
2022-10-19T03:02:27.147Z,12.20
2022-10-19T03:05:50.094Z,12.42
2022-10-19T03:09:23.982Z,12.77
2022-10-19T03:12:45.739Z,12.97
2022-10-19T03:15:55.680Z,13.15
2022-10-19T03:19:18.953Z,13.16
2022-10-19T03:22:39.709Z,13.15
2022-10-19T03:26:02.964Z,13.15
2022-10-19T03:29:37.020Z,13.07
2022-10-19T03:32:44.614Z,13.04
2022-10-19T03:36:21.112Z,12.98
2022-10-19T03:39:38.128Z,12.86
2022-10-19T03:43:01.016Z,12.92
2022-10-19T03:46:24.066Z,12.96
2022-10-19T03:49:46.941Z,12.92
2022-10-19T03:53:14.134Z,12.90
2022-10-19T03:56:37.807Z,12.89
2022-10-19T04:00:00.916Z,12.84
2022-10-19T04:03:20.218Z,12.76
2022-10-19T04:06:30.136Z,12.87
2022-10-19T04:09:33.778Z,12.73
2022-10-19T04:13:40.992Z,12.67
2022-10-19T04:16:48.581Z,12.63
2022-10-19T04:20:03.079Z,12.51
2022-10-19T04:23:24.802Z,12.49
2022-10-19T04:26:45.859Z,12.45
2022-10-19T04:30:08.827Z,12.35
2022-10-19T04:33:29.774Z,12.30
2022-10-19T04:36:52.808Z,12.23
2022-10-19T04:40:15.128Z,12.31
2022-10-19T04:43:18.257Z,12.32
2022-10-19T04:46:21.921Z,12.28
2022-10-19T04:49:31.394Z,12.32
2022-10-19T04:52:46.858Z,12.32
2022-10-19T04:56:03.067Z,12.22
2022-10-19T04:59:36.729Z,12.12
2022-10-19T05:03:01.425Z,12.02
2022-10-19T05:06:11.545Z,11.95
2022-10-19T05:09:37.656Z,11.84
2022-10-19T05:13:04.736Z,11.76
2022-10-19T05:16:32.623Z,11.63
2022-10-19T05:19:54.441Z,11.57
2022-10-19T05:23:15.443Z,11.53
2022-10-19T05:26:34.385Z,11.53
2022-10-19T05:29:44.237Z,11.56
2022-10-19T05:32:47.305Z,11.58
2022-10-19T05:35:53.805Z,11.62
2022-10-19T05:39:08.893Z,11.69
2022-10-19T05:42:31.497Z,11.76
2022-10-19T05:45:41.651Z,11.71
2022-10-19T05:48:46.807Z,11.73
2022-10-19T05:56:57.583Z,11.79
2022-10-19T06:06:31.733Z,11.85
2022-10-19T06:10:32.399Z,11.87
2022-10-19T06:20:01.877Z,12.10
2022-10-19T06:24:03.298Z,12.16
2022-10-19T06:32:34.660Z,12.41
2022-10-19T06:35:44.947Z,12.56
2022-10-19T06:39:02.221Z,12.63
2022-10-19T06:48:21.917Z,12.83
2022-10-19T06:51:41.972Z,12.97
2022-10-19T06:56:05.733Z,13.02
2022-10-19T07:04:27.821Z,13.07
2022-10-19T07:07:30.903Z,13.09
2022-10-19T07:11:14.996Z,13.19
2022-10-19T07:14:43.695Z,13.27
2022-10-19T07:18:41.605Z,13.32
2022-10-19T07:26:55.979Z,13.46
2022-10-19T07:30:06.335Z,13.53
2022-10-19T07:33:58.411Z,13.63
2022-10-19T07:37:11.459Z,13.62
2022-10-19T07:40:20.673Z,13.65
2022-10-19T07:43:46.919Z,13.65
2022-10-19T07:47:15.748Z,13.66
2022-10-19T07:50:35.831Z,13.70
2022-10-19T07:53:52.669Z,13.78
2022-10-19T07:56:58.210Z,13.83
2022-10-19T08:00:30.105Z,14.01
2022-10-19T08:07:43.883Z,14.16
2022-10-19T08:11:26.286Z,14.38
2022-10-19T08:14:57.533Z,14.34
2022-10-19T08:23:10.600Z,14.62
2022-10-19T08:27:03.129Z,14.72
2022-10-19T08:30:18.509Z,14.99
2022-10-19T08:33:29.804Z,15.21
2022-10-19T08:36:56.729Z,15.35
2022-10-19T08:40:47.885Z,15.46
2022-10-19T08:44:45.406Z,15.50
2022-10-19T08:48:37.144Z,15.61
2022-10-19T08:57:33.753Z,15.77
2022-10-19T09:01:42.011Z,15.96
2022-10-19T09:05:31.302Z,16.21
2022-10-19T09:08:39.127Z,16.26
2022-10-19T09:12:23.417Z,16.37
2022-10-19T09:15:44.627Z,16.43
2022-10-19T09:22:21.730Z,16.68
2022-10-19T09:25:35.270Z,16.78
2022-10-19T09:28:58.635Z,16.90
2022-10-19T09:32:40.466Z,16.99
2022-10-19T09:35:58.356Z,17.18
2022-10-19T09:39:14.484Z,17.43
2022-10-19T09:42:30.867Z,17.61
2022-10-19T09:45:57.466Z,17.79
2022-10-19T09:49:07.251Z,17.76
2022-10-19T09:52:55.189Z,17.75
2022-10-19T09:56:54.123Z,17.66
2022-10-19T10:00:47.777Z,17.83
2022-10-19T10:04:20.272Z,17.88
2022-10-19T10:08:41.105Z,17.86
2022-10-19T10:13:07.114Z,18.19
2022-10-19T10:16:43.512Z,18.39
2022-10-19T10:20:23.636Z,18.66
2022-10-19T10:24:32.323Z,18.80
2022-10-19T10:28:19.209Z,18.55
2022-10-19T10:31:44.751Z,18.28
2022-10-19T10:35:16.750Z,18.20
2022-10-19T10:38:55.480Z,18.35
2022-10-19T10:42:39.103Z,18.42
2022-10-19T10:46:47.587Z,18.46
2022-10-19T10:50:20.630Z,18.50
2022-10-19T10:53:54.900Z,18.61
2022-10-19T10:58:15.115Z,18.57
2022-10-19T11:02:09.423Z,18.67
2022-10-19T11:06:09.261Z,18.72
2022-10-19T11:10:10.232Z,18.73
2022-10-19T11:19:25.065Z,18.69
2022-10-19T11:23:11.153Z,18.86
2022-10-19T11:27:00.992Z,18.74
2022-10-19T11:30:33.356Z,18.78
2022-10-19T11:34:28.057Z,18.89
2022-10-19T11:38:18.388Z,19.02
2022-10-19T11:46:32.316Z,18.90
2022-10-19T11:50:03.160Z,19.02
2022-10-19T11:53:18.903Z,19.00
2022-10-19T11:57:03.978Z,18.85
2022-10-19T12:01:02.763Z,18.76
2022-10-19T12:04:55.416Z,18.97
2022-10-19T12:08:32.456Z,19.11
2022-10-19T12:12:31.125Z,19.16
2022-10-19T12:16:20.934Z,18.88
2022-10-19T12:19:45.147Z,19.11
2022-10-19T12:23:31.509Z,19.20
2022-10-19T12:26:38.171Z,19.23
2022-10-19T12:29:49.980Z,19.04
2022-10-19T12:33:01.997Z,19.53
2022-10-19T12:36:53.205Z,19.90
2022-10-19T12:40:09.504Z,19.62
2022-10-19T12:43:33.298Z,18.70
2022-10-19T12:46:51.767Z,18.50
2022-10-19T12:50:00.138Z,18.29
2022-10-19T12:53:07.827Z,18.26
2022-10-19T12:56:22.960Z,18.14
2022-10-19T12:59:38.730Z,18.11
2022-10-19T13:03:28.984Z,18.18
2022-10-19T13:07:01.596Z,18.12
2022-10-19T13:10:45.718Z,18.13
2022-10-19T13:14:26.670Z,18.08
2022-10-19T13:17:51.917Z,18.01
2022-10-19T13:21:09.851Z,18.10
2022-10-19T13:24:36.815Z,18.11
2022-10-19T13:28:58.686Z,18.05
2022-10-19T13:32:53.529Z,18.04
2022-10-19T13:36:19.674Z,17.94
2022-10-19T13:39:30.678Z,17.89
2022-10-19T13:42:46.671Z,17.85
2022-10-19T13:46:30.148Z,17.91
2022-10-19T13:50:11.527Z,17.94
2022-10-19T13:53:39.711Z,17.85
2022-10-19T13:57:19.210Z,17.68
2022-10-19T14:00:36.288Z,17.67
2022-10-19T14:04:10.252Z,17.60
2022-10-19T14:07:32.630Z,17.60
2022-10-19T14:11:01.612Z,17.45
2022-10-19T14:14:28.522Z,17.42
2022-10-19T14:17:42.949Z,17.39
2022-10-19T14:21:06.430Z,17.29
2022-10-19T14:24:53.799Z,17.19
2022-10-19T14:28:10.754Z,17.09
2022-10-19T14:31:22.503Z,16.98
2022-10-19T14:34:37.248Z,16.95
2022-10-19T14:37:45.230Z,16.95
2022-10-19T14:41:06.747Z,16.91
2022-10-19T14:44:58.400Z,16.84
2022-10-19T14:48:17.025Z,16.84
2022-10-19T14:51:38.982Z,16.80
2022-10-19T14:54:51.539Z,16.78
2022-10-19T14:57:54.759Z,16.70
2022-10-19T15:01:14.225Z,16.59
2022-10-19T15:04:43.264Z,16.51
2022-10-19T15:08:00.373Z,16.45
2022-10-19T15:11:33.338Z,16.34
2022-10-19T15:14:38.288Z,16.26
2022-10-19T15:18:02.818Z,16.21
2022-10-19T15:21:33.534Z,16.11
2022-10-19T15:25:11.491Z,15.98
2022-10-19T15:28:34.967Z,15.90
2022-10-19T15:31:40.719Z,15.85
2022-10-19T15:35:07.553Z,15.80
2022-10-19T15:38:28.458Z,15.73
2022-10-19T15:41:51.338Z,15.66
2022-10-19T15:45:12.174Z,15.64
2022-10-19T15:48:41.611Z,15.57
2022-10-19T15:51:54.440Z,15.49
2022-10-19T15:55:10.459Z,15.44
2022-10-19T15:58:34.197Z,15.35
2022-10-19T16:02:00.421Z,15.28
2022-10-19T16:05:24.466Z,15.20
2022-10-19T16:08:41.362Z,15.09
2022-10-19T16:12:03.311Z,15.05
2022-10-19T16:15:30.141Z,14.99
2022-10-19T16:18:50.200Z,14.89
2022-10-19T16:22:10.276Z,14.77
2022-10-19T16:25:33.426Z,14.69
2022-10-19T16:28:44.214Z,14.64
2022-10-19T16:31:47.500Z,14.61
2022-10-19T16:35:40.391Z,14.50
2022-10-19T16:38:43.539Z,14.54
2022-10-19T16:41:52.090Z,14.43
2022-10-19T16:45:03.032Z,14.33
2022-10-19T16:48:24.179Z,14.22
2022-10-19T16:51:39.210Z,14.16
2022-10-19T16:55:02.004Z,14.04
2022-10-19T16:58:10.056Z,14.01
2022-10-19T17:01:19.457Z,13.90
2022-10-19T17:04:29.642Z,13.92
2022-10-19T17:07:33.286Z,13.89
2022-10-19T17:10:42.513Z,13.85
2022-10-19T17:13:53.149Z,13.77
2022-10-19T17:16:56.418Z,13.70
2022-10-19T17:20:13.862Z,13.60
2022-10-19T17:23:41.958Z,13.63
2022-10-19T17:27:17.099Z,13.59
2022-10-19T17:30:33.110Z,13.50
2022-10-19T17:33:36.955Z,13.44
2022-10-19T17:36:46.461Z,13.39
2022-10-19T17:39:56.707Z,13.34
2022-10-19T17:43:19.935Z,13.27
2022-10-19T17:46:40.589Z,13.24
2022-10-19T17:49:51.588Z,13.07
2022-10-19T17:53:08.990Z,13.01
2022-10-19T17:56:38.964Z,12.95
2022-10-19T17:59:52.775Z,12.92
2022-10-19T18:03:19.027Z,12.85
2022-10-19T18:06:43.657Z,12.78
2022-10-19T18:10:06.839Z,12.74
2022-10-19T18:13:14.919Z,12.75
2022-10-19T18:16:40.328Z,12.70
2022-10-19T18:19:57.367Z,12.62
2022-10-19T18:23:04.039Z,12.57
2022-10-19T18:26:16.023Z,12.48
2022-10-19T18:29:32.236Z,12.35
2022-10-19T18:32:49.504Z,12.24
2022-10-19T18:36:01.454Z,12.20
2022-10-19T18:39:11.174Z,12.22
2022-10-19T18:42:16.644Z,12.20
2022-10-19T18:45:27.354Z,12.20
2022-10-19T18:48:45.777Z,12.11
2022-10-19T18:52:09.716Z,12.08
2022-10-19T18:55:38.429Z,11.99
2022-10-19T18:58:49.561Z,11.94
2022-10-19T19:01:54.943Z,11.82
2022-10-19T19:05:09.201Z,11.76
2022-10-19T19:08:16.802Z,11.71
2022-10-19T19:11:28.773Z,11.75
2022-10-19T19:14:34.416Z,11.68
2022-10-19T19:17:41.964Z,11.70
2022-10-19T19:20:48.798Z,11.77
2022-10-19T19:24:14.773Z,11.76
2022-10-19T19:27:46.432Z,11.88
2022-10-19T19:31:04.737Z,11.72
2022-10-19T19:34:21.645Z,11.63
2022-10-19T19:37:50.597Z,11.55
2022-10-19T19:40:53.736Z,11.50
2022-10-19T19:44:00.523Z,11.49
2022-10-19T19:47:11.547Z,11.42
2022-10-19T19:50:28.748Z,11.34
2022-10-19T19:53:48.029Z,11.28
2022-10-19T19:57:18.221Z,11.30
2022-10-19T20:00:36.580Z,11.32
2022-10-19T20:03:47.067Z,11.27
2022-10-19T20:06:54.685Z,11.19
2022-10-19T20:10:02.520Z,11.09
2022-10-19T20:13:19.898Z,11.02
2022-10-19T20:16:37.844Z,10.99
2022-10-19T20:19:57.717Z,10.97
2022-10-19T20:23:25.738Z,10.88
2022-10-19T20:26:29.795Z,10.87
2022-10-19T20:29:34.561Z,10.78
2022-10-19T20:32:41.606Z,10.75
2022-10-19T20:35:51.091Z,10.74
2022-10-19T20:38:59.857Z,10.73
2022-10-19T20:42:03.124Z,10.77
2022-10-19T20:45:07.403Z,10.71
2022-10-19T20:48:30.488Z,10.67
2022-10-19T20:51:59.563Z,10.58
2022-10-19T20:55:20.570Z,10.48
2022-10-19T20:58:37.497Z,10.38
2022-10-19T21:01:57.440Z,10.29
2022-10-19T21:05:17.613Z,10.25
2022-10-19T21:08:42.534Z,10.27
2022-10-19T21:12:04.556Z,10.26
2022-10-19T21:15:26.780Z,10.15
2022-10-19T21:18:29.752Z,10.16
2022-10-19T21:21:46.207Z,10.14
2022-10-19T21:24:52.676Z,10.12
2022-10-19T21:28:15.462Z,10.16
2022-10-19T21:31:45.219Z,10.10
2022-10-19T21:35:05.806Z,10.05
2022-10-19T21:38:28.326Z,10.02
2022-10-19T21:41:44.490Z,10.04
2022-10-19T21:45:28.767Z,10.03
2022-10-19T21:48:36.269Z,9.91
2022-10-19T21:51:54.070Z,9.97
2022-10-19T21:55:10.355Z,9.95
2022-10-19T21:58:35.325Z,9.92
2022-10-19T22:02:04.348Z,9.87
2022-10-19T22:05:27.265Z,9.81
2022-10-19T22:08:43.501Z,9.76
2022-10-19T22:12:04.363Z,9.76
2022-10-19T22:15:33.274Z,9.71
2022-10-19T22:18:57.352Z,9.64
2022-10-19T22:22:15.323Z,9.59
2022-10-19T22:25:38.250Z,9.57
2022-10-19T22:28:57.201Z,9.55
2022-10-19T22:32:21.368Z,9.51
2022-10-19T22:35:47.361Z,9.51
2022-10-19T22:39:10.323Z,9.46
2022-10-19T22:43:11.218Z,9.39
2022-10-19T22:46:34.174Z,9.40
2022-10-19T22:49:54.886Z,9.32
2022-10-19T22:53:18.153Z,9.25
2022-10-19T22:56:54.176Z,9.24
2022-10-19T23:00:19.856Z,9.16
2022-10-19T23:03:29.681Z,9.20
2022-10-19T23:06:45.101Z,9.18
2022-10-19T23:10:20.116Z,9.09
2022-10-19T23:13:33.843Z,9.12
2022-10-19T23:16:57.600Z,9.09
2022-10-19T23:20:26.820Z,8.96
2022-10-19T23:23:49.082Z,8.87
2022-10-19T23:27:03.771Z,8.92
2022-10-19T23:30:07.786Z,8.91
2022-10-19T23:33:11.846Z,8.90
2022-10-19T23:36:24.804Z,8.83
2022-10-19T23:39:32.538Z,8.81
2022-10-19T23:42:36.384Z,8.76
2022-10-19T23:45:46.920Z,8.74
2022-10-19T23:49:06.053Z,8.66
2022-10-19T23:52:29.716Z,8.64
2022-10-19T23:55:46.854Z,8.64
2022-10-19T23:59:00.787Z,8.59
